createdAt,value
2023-02-04T00:00:21.208Z,1.35
2023-02-04T00:02:48.281Z,1.30
2023-02-04T00:05:17.806Z,1.45
2023-02-04T00:07:44.753Z,1.58
2023-02-04T00:10:11.997Z,1.50
2023-02-04T00:12:38.955Z,1.40
2023-02-04T00:15:06.388Z,1.20
2023-02-04T00:17:33.329Z,1.00
2023-02-04T00:20:00.289Z,1.30
2023-02-04T00:22:29.194Z,1.60
2023-02-04T00:24:56.346Z,1.00
2023-02-04T00:27:23.417Z,1.55
2023-02-04T00:29:50.488Z,1.70
2023-02-04T00:32:17.516Z,1.40
2023-02-04T00:34:44.588Z,1.65
2023-02-04T00:37:11.490Z,2.15
2023-02-04T00:39:38.508Z,1.67
2023-02-04T00:42:05.940Z,1.80
2023-02-04T00:44:33.017Z,1.85
2023-02-04T00:47:00.147Z,2.13
2023-02-04T00:49:27.089Z,1.70
2023-02-04T00:51:54.100Z,1.33
2023-02-04T00:54:21.156Z,1.80
2023-02-04T00:56:48.204Z,1.65
2023-02-04T00:59:15.292Z,1.48
2023-02-04T01:01:42.374Z,1.40
2023-02-04T01:04:09.398Z,1.52
2023-02-04T01:06:36.467Z,1.15
2023-02-04T01:09:04.785Z,1.33
2023-02-04T01:11:32.133Z,1.90
2023-02-04T01:13:59.450Z,1.98
2023-02-04T01:16:26.382Z,1.63
2023-02-04T01:18:55.924Z,1.17
2023-02-04T01:21:26.059Z,2.53
2023-02-04T01:23:53.045Z,1.70
2023-02-04T01:26:20.382Z,1.90
2023-02-04T01:28:47.596Z,1.80
2023-02-04T01:31:15.308Z,1.38
2023-02-04T01:33:42.403Z,2.13
2023-02-04T01:36:10.444Z,2.65
2023-02-04T01:38:37.596Z,1.73
2023-02-04T01:41:05.358Z,1.50
2023-02-04T01:43:33.034Z,1.85
2023-02-04T01:46:01.021Z,1.30
2023-02-04T01:48:28.190Z,1.63
2023-02-04T01:51:05.809Z,1.50
2023-02-04T01:53:33.819Z,1.77
2023-02-04T01:56:01.043Z,2.03
2023-02-04T01:58:30.949Z,1.40
2023-02-04T02:00:58.310Z,1.75
2023-02-04T02:03:25.629Z,1.90
2023-02-04T02:05:55.655Z,1.20
2023-02-04T02:08:23.000Z,1.45
2023-02-04T02:10:50.378Z,1.40
2023-02-04T02:13:19.617Z,1.50
2023-02-04T02:15:48.008Z,1.30
2023-02-04T02:18:15.668Z,1.23
2023-02-04T02:20:44.920Z,1.48
2023-02-04T02:23:27.085Z,1.45
2023-02-04T02:25:54.069Z,1.38
2023-02-04T02:28:22.933Z,1.48
2023-02-04T02:30:51.370Z,1.25
2023-02-04T02:33:20.686Z,1.20
2023-02-04T02:35:51.249Z,1.77
2023-02-04T02:38:19.861Z,1.10
2023-02-04T02:40:48.075Z,1.60
2023-02-04T02:43:18.315Z,1.60
2023-02-04T02:45:45.822Z,1.25
2023-02-04T02:48:13.068Z,1.45
2023-02-04T02:50:42.073Z,1.45
2023-02-04T02:53:17.823Z,1.60
2023-02-04T02:55:45.201Z,1.35
2023-02-04T02:58:29.652Z,1.50
2023-02-04T03:00:57.296Z,1.45
2023-02-04T03:03:27.972Z,1.40
2023-02-04T03:06:01.458Z,1.40
2023-02-04T03:08:28.766Z,1.20
2023-02-04T03:10:55.863Z,1.15
2023-02-04T03:13:23.545Z,1.50
2023-02-04T03:15:50.779Z,1.40
2023-02-04T03:18:20.413Z,1.27
2023-02-04T03:20:50.610Z,0.90
2023-02-04T03:23:18.171Z,1.35
2023-02-04T03:25:45.354Z,1.83
2023-02-04T03:28:12.405Z,1.63
2023-02-04T03:30:39.375Z,1.38
2023-02-04T03:33:06.441Z,1.20
2023-02-04T03:35:33.402Z,1.10
2023-02-04T03:38:00.312Z,1.05
2023-02-04T03:40:27.292Z,1.10
2023-02-04T03:42:54.222Z,0.93
2023-02-04T03:45:21.303Z,0.90
2023-02-04T03:47:48.407Z,1.55
2023-02-04T03:50:15.690Z,1.15
2023-02-04T03:52:42.616Z,1.27
2023-02-04T03:55:09.531Z,1.20
2023-02-04T03:57:36.480Z,1.75
2023-02-04T04:00:04.272Z,1.20
2023-02-04T04:02:31.183Z,1.15
2023-02-04T04:04:58.140Z,1.30
2023-02-04T04:07:25.096Z,1.20
2023-02-04T04:09:52.036Z,1.50
2023-02-04T04:12:19.052Z,1.33
2023-02-04T04:14:45.931Z,0.93
2023-02-04T04:17:12.888Z,1.00
2023-02-04T04:19:39.817Z,1.20
2023-02-04T04:22:06.841Z,1.30
2023-02-04T04:24:33.842Z,1.30
2023-02-04T04:27:00.816Z,1.30
2023-02-04T04:29:27.729Z,1.13
2023-02-04T04:31:54.760Z,1.00
2023-02-04T04:34:21.703Z,1.10
2023-02-04T04:36:48.629Z,1.65
2023-02-04T04:39:15.574Z,1.10
2023-02-04T04:41:42.500Z,0.90
2023-02-04T04:44:09.482Z,1.45
2023-02-04T04:46:36.528Z,1.25
2023-02-04T04:49:03.471Z,1.10
2023-02-04T04:51:32.457Z,1.30
2023-02-04T04:54:00.139Z,1.85
2023-02-04T04:56:27.136Z,1.38
2023-02-04T04:58:54.050Z,1.50
2023-02-04T05:01:22.726Z,1.70
2023-02-04T05:03:49.840Z,1.40
2023-02-04T05:06:16.888Z,1.00
2023-02-04T05:08:43.798Z,1.33
2023-02-04T05:11:10.682Z,1.20
2023-02-04T05:13:37.628Z,1.50
2023-02-04T05:16:04.862Z,1.45
2023-02-04T05:18:31.808Z,1.17
2023-02-04T05:20:58.744Z,1.50
2023-02-04T05:23:25.678Z,1.20
2023-02-04T05:25:52.579Z,1.30
2023-02-04T05:28:19.600Z,1.30
2023-02-04T05:30:46.558Z,1.05
2023-02-04T05:33:13.469Z,1.48
2023-02-04T05:35:40.505Z,1.40
2023-02-04T05:38:07.521Z,1.10
2023-02-04T05:40:34.652Z,1.17
2023-02-04T05:43:01.776Z,1.58
2023-02-04T05:45:28.781Z,1.35
2023-02-04T05:47:55.690Z,1.40
2023-02-04T05:50:22.754Z,0.90
2023-02-04T05:52:49.676Z,1.38
2023-02-04T05:55:16.645Z,1.40
2023-02-04T05:57:43.603Z,1.38
2023-02-04T06:00:12.447Z,1.38
2023-02-04T06:02:39.468Z,0.90
2023-02-04T06:05:06.774Z,1.40
2023-02-04T06:07:33.689Z,1.02
2023-02-04T06:10:00.752Z,0.90
2023-02-04T06:12:27.768Z,1.52
2023-02-04T06:14:55.142Z,1.05
2023-02-04T06:17:22.094Z,1.13
2023-02-04T06:19:49.028Z,0.90
2023-02-04T06:22:15.976Z,0.90
2023-02-04T06:24:42.931Z,1.20
2023-02-04T06:27:09.846Z,1.10
2023-02-04T06:29:36.793Z,1.27
2023-02-04T06:32:04.078Z,1.20
2023-02-04T06:34:31.181Z,1.40
2023-02-04T06:36:58.147Z,0.93
2023-02-04T06:39:25.148Z,1.60
2023-02-04T06:41:52.910Z,0.80
2023-02-04T06:44:20.047Z,1.13
2023-02-04T06:46:47.021Z,1.65
2023-02-04T06:49:14.172Z,1.30
2023-02-04T06:51:41.206Z,2.17
2023-02-04T06:54:08.209Z,1.40
2023-02-04T06:56:35.193Z,1.30
2023-02-04T06:59:03.512Z,1.20
2023-02-04T07:01:30.758Z,1.27
2023-02-04T07:03:57.731Z,0.90
2023-02-04T07:06:24.732Z,1.02
2023-02-04T07:08:51.705Z,0.90
2023-02-04T07:11:18.732Z,1.00
2023-02-04T07:13:45.667Z,1.17
2023-02-04T07:16:12.695Z,1.20
2023-02-04T07:18:39.785Z,1.70
2023-02-04T07:21:06.741Z,2.20
2023-02-04T07:23:33.740Z,1.58
2023-02-04T07:26:01.001Z,1.35
2023-02-04T07:28:28.110Z,1.77
2023-02-04T07:30:55.538Z,2.13
2023-02-04T07:33:22.577Z,2.03
2023-02-04T07:35:49.621Z,1.70
2023-02-04T07:38:16.684Z,1.98
2023-02-04T07:40:43.703Z,2.38
2023-02-04T07:43:10.901Z,1.60
2023-02-04T07:45:37.904Z,1.98
2023-02-04T07:48:05.221Z,1.83
2023-02-04T07:50:32.595Z,2.05
2023-02-04T07:52:59.995Z,1.95
2023-02-04T07:55:27.091Z,2.47
2023-02-04T07:57:54.593Z,2.05
2023-02-04T08:00:22.222Z,1.77
2023-02-04T08:02:49.363Z,1.65
2023-02-04T08:05:16.741Z,1.75
2023-02-04T08:07:43.778Z,2.05
2023-02-04T08:10:11.709Z,1.70
2023-02-04T08:12:41.086Z,2.05
2023-02-04T08:15:08.963Z,1.60
2023-02-04T08:17:36.443Z,1.63
2023-02-04T08:20:07.219Z,3.42
2023-02-04T08:22:35.559Z,1.70
2023-02-04T08:25:05.538Z,1.95
2023-02-04T08:27:32.973Z,1.90
2023-02-04T08:30:00.197Z,1.88
2023-02-04T08:32:29.491Z,2.03
2023-02-04T08:34:57.088Z,1.92
2023-02-04T08:37:27.606Z,1.80
2023-02-04T08:39:54.864Z,1.85
2023-02-04T08:42:22.507Z,1.65
2023-02-04T08:44:49.850Z,1.80
2023-02-04T08:47:17.451Z,1.95
2023-02-04T08:49:47.540Z,3.03
2023-02-04T08:52:14.683Z,1.67
2023-02-04T08:54:41.969Z,1.58
2023-02-04T08:57:09.408Z,2.13
2023-02-04T08:59:36.633Z,2.15
2023-02-04T09:02:03.956Z,1.60
2023-02-04T09:04:31.170Z,1.70
2023-02-04T09:07:00.357Z,1.90
2023-02-04T09:09:27.525Z,1.65
2023-02-04T09:11:54.722Z,1.58
2023-02-04T09:14:21.722Z,1.90
2023-02-04T09:16:49.274Z,1.77
2023-02-04T09:19:19.258Z,1.70
2023-02-04T09:21:46.559Z,1.77
2023-02-04T09:24:13.551Z,1.70
2023-02-04T09:26:40.558Z,1.85
2023-02-04T09:29:07.560Z,1.45
2023-02-04T09:31:34.659Z,1.85
2023-02-04T09:34:01.797Z,1.60
2023-02-04T09:36:30.688Z,1.45
2023-02-04T09:38:57.813Z,1.42
2023-02-04T09:41:24.981Z,1.50
2023-02-04T09:43:52.051Z,1.48
2023-02-04T09:46:24.826Z,1.60
2023-02-04T09:48:52.413Z,1.10
2023-02-04T09:51:23.306Z,1.17
2023-02-04T09:53:51.390Z,1.48
2023-02-04T09:56:19.479Z,1.35
2023-02-04T09:58:46.980Z,1.73
2023-02-04T10:01:19.143Z,1.45
2023-02-04T10:03:48.449Z,1.50
2023-02-04T10:06:18.260Z,1.65
2023-02-04T10:08:50.304Z,1.98
2023-02-04T10:11:21.009Z,2.25
2023-02-04T10:13:54.174Z,2.22
2023-02-04T10:16:30.150Z,2.13
2023-02-04T10:18:59.938Z,2.20
2023-02-04T10:21:32.409Z,1.90
2023-02-04T10:24:03.188Z,1.85
2023-02-04T10:26:32.187Z,1.85
2023-02-04T10:29:05.320Z,1.70
2023-02-04T10:31:41.857Z,2.40
2023-02-04T10:34:39.923Z,2.08
2023-02-04T10:37:20.245Z,1.88
2023-02-04T10:39:47.477Z,2.67
2023-02-04T10:42:28.166Z,1.38
2023-02-04T10:44:55.808Z,1.33
2023-02-04T10:47:25.660Z,1.33
2023-02-04T10:49:55.562Z,0.80
2023-02-04T10:52:34.428Z,1.23
2023-02-04T10:55:03.801Z,0.90
2023-02-04T10:57:31.871Z,0.90
2023-02-04T11:00:02.362Z,1.00
2023-02-04T11:02:32.174Z,1.20
2023-02-04T11:04:59.225Z,1.10
2023-02-04T11:07:26.499Z,0.73
2023-02-04T11:09:53.726Z,0.98
2023-02-04T11:12:42.151Z,0.90
2023-02-04T11:15:50.425Z,0.80
2023-02-04T11:18:20.732Z,0.70
2023-02-04T11:20:53.430Z,0.88
2023-02-04T11:23:26.613Z,1.00
2023-02-04T11:26:04.362Z,0.73
2023-02-04T11:28:46.831Z,1.10
2023-02-04T11:31:29.176Z,0.80
2023-02-04T11:34:16.322Z,0.68
2023-02-04T11:37:01.512Z,0.70
2023-02-04T11:39:37.103Z,0.82
2023-02-04T11:42:06.124Z,0.88
2023-02-04T11:44:34.208Z,1.20
2023-02-04T11:47:02.849Z,0.60
2023-02-04T11:49:31.170Z,0.63
2023-02-04T11:52:12.784Z,0.70
2023-02-04T11:54:40.010Z,0.63
2023-02-04T11:57:06.968Z,0.60
2023-02-04T11:59:34.003Z,0.70
2023-02-04T12:02:26.391Z,0.88
2023-02-04T12:05:08.466Z,0.68
2023-02-04T12:07:35.765Z,0.55
2023-02-04T12:10:17.749Z,0.60
2023-02-04T12:12:57.775Z,0.68
2023-02-04T12:15:38.131Z,0.70
2023-02-04T12:18:07.630Z,0.60
2023-02-04T12:20:36.304Z,0.70
2023-02-04T12:23:04.391Z,0.60
2023-02-04T12:25:32.042Z,0.85
2023-02-04T12:28:01.725Z,0.70
2023-02-04T12:30:29.700Z,1.23
2023-02-04T12:32:56.857Z,0.90
2023-02-04T12:35:23.871Z,0.80
2023-02-04T12:37:50.790Z,0.85
2023-02-04T12:40:19.725Z,0.90
2023-02-04T12:42:46.908Z,0.90
2023-02-04T12:45:16.319Z,0.80
2023-02-04T12:47:44.083Z,0.70
2023-02-04T12:50:13.097Z,1.00
2023-02-04T12:52:40.403Z,1.27
2023-02-04T12:55:09.007Z,0.90
2023-02-04T12:57:35.956Z,1.33
2023-02-04T13:00:03.646Z,1.00
2023-02-04T13:02:30.819Z,0.70
2023-02-04T13:04:57.785Z,0.82
2023-02-04T13:07:24.824Z,1.35
2023-02-04T13:09:52.467Z,1.10
2023-02-04T13:12:19.467Z,1.00
2023-02-04T13:14:46.516Z,1.02
2023-02-04T13:17:13.691Z,0.90
2023-02-04T13:19:40.643Z,1.30
2023-02-04T13:22:07.596Z,1.50
2023-02-04T13:24:34.649Z,1.50
2023-02-04T13:27:01.600Z,1.40
2023-02-04T13:29:28.560Z,1.35
2023-02-04T13:31:55.518Z,1.23
2023-02-04T13:34:22.560Z,1.20
2023-02-04T13:36:49.574Z,1.85
2023-02-04T13:39:16.575Z,1.27
2023-02-04T13:41:43.557Z,1.20
2023-02-04T13:44:10.538Z,1.10
2023-02-04T13:46:37.527Z,1.50
2023-02-04T13:49:04.756Z,0.80
2023-02-04T13:51:32.178Z,1.00
2023-02-04T13:54:00.455Z,1.15
2023-02-04T13:56:28.553Z,1.00
2023-02-04T13:58:55.504Z,1.45
2023-02-04T14:01:22.609Z,1.20
2023-02-04T14:03:49.689Z,0.90
2023-02-04T14:06:20.620Z,1.00
2023-02-04T14:08:48.401Z,1.05
2023-02-04T14:11:15.652Z,1.55
2023-02-04T14:13:42.713Z,0.80
2023-02-04T14:16:09.933Z,0.88
2023-02-04T14:18:37.240Z,0.98
2023-02-04T14:21:04.549Z,1.15
2023-02-04T14:23:31.683Z,0.90
2023-02-04T14:25:58.858Z,1.00
2023-02-04T14:28:26.099Z,0.88
2023-02-04T14:30:54.957Z,0.63
2023-02-04T14:33:22.225Z,0.70
2023-02-04T14:35:49.530Z,0.90
2023-02-04T14:38:17.320Z,0.80
2023-02-04T14:40:45.814Z,0.88
2023-02-04T14:43:13.698Z,0.77
2023-02-04T14:45:41.539Z,0.70
2023-02-04T14:48:09.279Z,0.55
2023-02-04T14:50:36.257Z,0.45
2023-02-04T14:53:03.601Z,0.57
2023-02-04T14:55:30.703Z,0.98
2023-02-04T14:57:57.700Z,0.63
2023-02-04T15:00:24.857Z,0.60
2023-02-04T15:02:52.044Z,0.57
2023-02-04T15:05:19.311Z,1.10
2023-02-04T15:07:46.268Z,0.60
2023-02-04T15:10:15.250Z,0.77
2023-02-04T15:12:42.408Z,0.60
2023-02-04T15:15:09.853Z,1.13
2023-02-04T15:17:36.861Z,1.17
2023-02-04T15:20:05.110Z,0.47
2023-02-04T15:22:32.177Z,0.73
2023-02-04T15:24:59.180Z,0.40
2023-02-04T15:27:26.250Z,0.40
2023-02-04T15:29:53.578Z,0.35
2023-02-04T15:32:20.658Z,0.20
2023-02-04T15:34:47.670Z,0.32
2023-02-04T15:37:14.797Z,0.30
2023-02-04T15:39:43.740Z,0.20
2023-02-04T15:42:11.169Z,0.88
2023-02-04T15:44:39.612Z,0.60
2023-02-04T15:47:06.712Z,0.70
2023-02-04T15:49:35.156Z,0.90
2023-02-04T15:52:02.707Z,0.40
2023-02-04T15:54:30.188Z,0.20
2023-02-04T15:56:57.821Z,0.10
2023-02-04T15:59:24.899Z,0.77
2023-02-04T16:01:52.100Z,0.50
2023-02-04T16:04:20.841Z,0.90
2023-02-04T16:06:58.174Z,0.57
2023-02-04T16:09:26.369Z,0.20
2023-02-04T16:11:53.464Z,0.50
2023-02-04T16:14:20.615Z,0.47
2023-02-04T16:16:49.918Z,0.30
2023-02-04T16:19:16.911Z,0.20
2023-02-04T16:21:43.861Z,0.13
2023-02-04T16:24:10.895Z,0.35
2023-02-04T16:26:37.854Z,0.30
2023-02-04T16:29:05.003Z,0.52
2023-02-04T16:31:32.179Z,0.30
2023-02-04T16:33:59.177Z,0.20
2023-02-04T16:36:26.133Z,0.77
2023-02-04T16:38:55.023Z,0.30
2023-02-04T16:41:22.017Z,0.20
2023-02-04T16:43:48.996Z,0.10
2023-02-04T16:46:16.415Z,0.20
2023-02-04T16:48:43.706Z,0.20
2023-02-04T16:51:11.667Z,0.30
2023-02-04T16:53:39.443Z,0.10
2023-02-04T16:56:06.995Z,0.20
2023-02-04T16:58:54.389Z,0.17
2023-02-04T17:01:21.527Z,0.30
2023-02-04T17:03:48.579Z,0.20
2023-02-04T17:06:16.591Z,0.30
2023-02-04T17:08:43.689Z,0.20
2023-02-04T17:11:29.194Z,0.20
2023-02-04T17:13:57.054Z,0.40
2023-02-04T17:16:24.058Z,0.70
2023-02-04T17:18:51.222Z,0.52
2023-02-04T17:21:18.318Z,0.60
2023-02-04T17:23:45.395Z,0.80
2023-02-04T17:26:12.753Z,0.85
2023-02-04T17:28:39.980Z,0.82
2023-02-04T17:31:07.550Z,1.27
2023-02-04T17:33:34.897Z,1.00
2023-02-04T17:36:02.189Z,0.90
2023-02-04T17:38:29.442Z,1.17
2023-02-04T17:40:56.407Z,1.23
2023-02-04T17:43:24.745Z,1.00
2023-02-04T17:45:51.757Z,1.45
2023-02-04T17:48:19.061Z,1.50
2023-02-04T17:50:46.051Z,1.15
2023-02-04T17:53:12.991Z,1.15
2023-02-04T17:55:40.122Z,1.20
2023-02-04T17:58:16.132Z,0.98
2023-02-04T18:00:45.653Z,1.08
2023-02-04T18:03:16.444Z,1.27
2023-02-04T18:05:46.215Z,1.20
2023-02-04T18:08:31.730Z,0.98
2023-02-04T18:10:58.820Z,1.55
2023-02-04T18:13:34.278Z,1.02
2023-02-04T18:16:27.240Z,0.98
2023-02-04T18:19:14.500Z,2.35
2023-02-04T18:21:41.641Z,1.45
2023-02-04T18:24:19.456Z,1.48
2023-02-04T18:26:52.125Z,1.10
2023-02-04T18:29:21.793Z,1.15
2023-02-04T18:31:55.643Z,1.25
2023-02-04T18:34:43.839Z,0.90
2023-02-04T18:37:36.236Z,1.00
2023-02-04T18:40:09.392Z,0.88
2023-02-04T18:42:42.346Z,1.15
2023-02-04T18:45:30.278Z,1.25
2023-02-04T18:48:21.793Z,1.40
2023-02-04T18:50:56.714Z,1.10
2023-02-04T18:53:26.646Z,1.00
2023-02-04T18:55:57.941Z,1.25
2023-02-04T18:58:36.553Z,1.27
2023-02-04T19:01:12.985Z,1.60
2023-02-04T19:03:55.832Z,1.10
2023-02-04T19:06:25.929Z,1.10
2023-02-04T19:08:54.488Z,1.27
2023-02-04T19:11:36.191Z,1.50
2023-02-04T19:14:17.645Z,1.70
2023-02-04T19:16:45.576Z,1.10
2023-02-04T19:19:36.527Z,1.25
2023-02-04T19:22:27.087Z,1.30
2023-02-04T19:25:18.773Z,1.20
2023-02-04T19:27:51.030Z,0.90
2023-02-04T19:30:46.835Z,1.23
2023-02-04T19:33:23.769Z,1.00
2023-02-04T19:35:50.778Z,0.98
2023-02-04T19:38:39.224Z,1.00
2023-02-04T19:41:44.400Z,0.73
2023-02-04T19:44:14.175Z,1.40
2023-02-04T19:46:44.973Z,1.00
2023-02-04T19:49:22.394Z,1.00
2023-02-04T19:51:57.657Z,0.88
2023-02-04T19:54:37.213Z,1.00
2023-02-04T19:57:21.140Z,1.42
2023-02-04T19:59:48.092Z,1.30
2023-02-04T20:02:20.889Z,0.82
2023-02-04T20:04:53.633Z,0.98
2023-02-04T20:07:24.297Z,1.10
2023-02-04T20:10:01.189Z,0.90
2023-02-04T20:12:29.927Z,1.45
2023-02-04T20:14:57.735Z,1.20
2023-02-04T20:17:40.118Z,2.33
2023-02-04T20:20:21.195Z,1.00
2023-02-04T20:22:53.352Z,1.20
2023-02-04T20:25:20.760Z,1.20
2023-02-04T20:27:55.293Z,0.98
2023-02-04T20:30:27.183Z,0.93
2023-02-04T20:32:56.926Z,1.20
2023-02-04T20:35:23.797Z,0.90
2023-02-04T20:37:56.075Z,1.20
2023-02-04T20:40:32.924Z,1.10
2023-02-04T20:43:09.523Z,1.33
2023-02-04T20:45:45.526Z,1.10
2023-02-04T20:48:18.512Z,2.45
2023-02-04T20:50:55.940Z,1.58
2023-02-04T20:53:22.937Z,1.45
2023-02-04T20:55:53.002Z,1.73
2023-02-04T20:58:22.088Z,1.23
2023-02-04T21:00:53.923Z,1.35
2023-02-04T21:03:27.174Z,1.30
2023-02-04T21:05:56.353Z,1.73
2023-02-04T21:08:33.587Z,2.67
2023-02-04T21:11:01.839Z,1.33
2023-02-04T21:13:28.950Z,1.85
2023-02-04T21:15:56.747Z,2.10
2023-02-04T21:18:23.929Z,1.65
2023-02-04T21:20:51.046Z,1.33
2023-02-04T21:23:18.462Z,2.03
2023-02-04T21:25:45.569Z,1.83
2023-02-04T21:28:12.915Z,1.67
2023-02-04T21:30:40.303Z,1.60
2023-02-04T21:33:10.233Z,1.77
2023-02-04T21:35:38.131Z,1.88
2023-02-04T21:38:06.033Z,1.60
2023-02-04T21:40:35.425Z,1.65
2023-02-04T21:43:06.560Z,2.30
2023-02-04T21:45:34.901Z,1.60
2023-02-04T21:48:02.401Z,1.77
2023-02-04T21:50:29.691Z,1.42
2023-02-04T21:52:57.182Z,2.22
2023-02-04T21:55:24.108Z,1.52
2023-02-04T21:57:51.633Z,1.83
2023-02-04T22:00:22.808Z,1.92
2023-02-04T22:02:50.575Z,1.77
2023-02-04T22:05:17.876Z,1.55
2023-02-04T22:07:45.078Z,1.70
2023-02-04T22:10:18.001Z,1.38
2023-02-04T22:12:46.729Z,2.30
2023-02-04T22:15:13.821Z,1.85
2023-02-04T22:17:41.123Z,1.80
2023-02-04T22:20:08.553Z,1.65
2023-02-04T22:22:35.561Z,1.30
2023-02-04T22:25:02.542Z,1.65
2023-02-04T22:27:29.619Z,1.60
2023-02-04T22:29:57.061Z,1.65
2023-02-04T22:32:24.498Z,1.55
2023-02-04T22:34:51.540Z,1.73
2023-02-04T22:37:18.540Z,1.75
2023-02-04T22:39:45.635Z,2.13
2023-02-04T22:42:12.700Z,1.92
2023-02-04T22:44:39.844Z,1.67
2023-02-04T22:47:06.853Z,2.08
2023-02-04T22:49:35.799Z,1.58
2023-02-04T22:52:03.444Z,1.75
2023-02-04T22:54:31.001Z,2.05
2023-02-04T22:57:00.326Z,1.80
2023-02-04T22:59:28.206Z,2.30
2023-02-04T23:01:56.363Z,3.00
2023-02-04T23:04:23.645Z,2.75
2023-02-04T23:06:51.196Z,1.88
2023-02-04T23:09:18.545Z,1.50
2023-02-04T23:11:45.790Z,1.52
2023-02-04T23:14:12.782Z,1.88
2023-02-04T23:16:40.026Z,2.25
2023-02-04T23:19:07.002Z,2.08
2023-02-04T23:21:34.253Z,1.80
2023-02-04T23:24:01.366Z,2.00
2023-02-04T23:26:28.393Z,2.05
2023-02-04T23:28:55.762Z,3.05
2023-02-04T23:31:22.847Z,2.00
2023-02-04T23:33:49.823Z,2.20
2023-02-04T23:36:16.811Z,2.60
2023-02-04T23:38:43.799Z,2.30
2023-02-04T23:41:10.770Z,2.58
2023-02-04T23:43:37.735Z,1.95
2023-02-04T23:46:04.870Z,1.80
2023-02-04T23:48:31.804Z,1.88
2023-02-04T23:50:58.839Z,2.00
2023-02-04T23:53:26.075Z,2.08
2023-02-04T23:55:53.045Z,2.53
2023-02-04T23:58:20.254Z,3.15
